TimeCDT,TemperatureF,Dew PointF,Humidity,Sea Level PressureIn,VisibilityMPH,Wind Direction,Wind SpeedMPH,Gust SpeedMPH,PrecipitationIn,Events,Conditions,WindDirDegrees,DateUTC
12:15 AM,89.2,64.6,44,29.94,10.0,ESE,6.9,-,N/A,,Clear,120,2013-07-13 05:15:00
12:35 AM,88.7,65.3,46,29.95,10.0,ESE,8.1,-,N/A,,Clear,110,2013-07-13 05:35:00
12:55 AM,88.2,65.5,47,29.95,10.0,East,6.9,-,N/A,,Clear,100,2013-07-13 05:55:00
1:15 AM,87.8,65.7,48,29.95,10.0,ESE,5.8,-,N/A,,Clear,110,2013-07-13 06:15:00
1:35 AM,87.1,66.2,50,29.95,10.0,ESE,5.8,-,N/A,,Clear,110,2013-07-13 06:35:00
1:55 AM,86.5,66.2,51,29.95,10.0,ESE,5.8,-,N/A,,Clear,110,2013-07-13 06:55:00
2:15 AM,86.0,66.4,52,29.95,10.0,ESE,6.9,-,N/A,,Clear,110,2013-07-13 07:15:00
2:35 AM,85.5,66.9,54,29.95,10.0,ESE,4.6,-,N/A,,Clear,120,2013-07-13 07:35:00
2:55 AM,85.3,66.2,53,29.95,10.0,ESE,4.6,-,N/A,,Clear,120,2013-07-13 07:55:00
3:15 AM,84.6,65.8,53,29.95,10.0,SE,4.6,-,N/A,,Clear,130,2013-07-13 08:15:00
3:35 AM,83.3,65.5,55,29.95,10.0,Calm,Calm,-,N/A,,Clear,0,2013-07-13 08:35:00
3:55 AM,83.5,66.2,56,29.95,10.0,East,3.5,-,N/A,,Clear,100,2013-07-13 08:55:00
4:15 AM,83.3,66.2,56,29.95,10.0,ESE,3.5,-,N/A,,Clear,110,2013-07-13 09:15:00
4:35 AM,81.7,66.7,60,29.95,10.0,Calm,Calm,-,N/A,,Clear,0,2013-07-13 09:35:00
4:55 AM,81.3,67.3,62,29.95,10.0,Calm,Calm,-,N/A,,Clear,0,2013-07-13 09:55:00
5:15 AM,80.6,67.3,64,29.96,10.0,Calm,Calm,-,N/A,,Clear,0,2013-07-13 10:15:00
5:35 AM,78.8,66.6,66,29.96,10.0,Calm,Calm,-,N/A,,Clear,0,2013-07-13 10:35:00
5:55 AM,78.6,66.4,66,29.97,10.0,Calm,Calm,-,N/A,,Clear,0,2013-07-13 10:55:00
6:15 AM,77.9,66.6,68,29.97,10.0,Calm,Calm,-,N/A,,Clear,0,2013-07-13 11:15:00
6:35 AM,77.4,66.4,69,29.98,10.0,Calm,Calm,-,N/A,,Clear,0,2013-07-13 11:35:00
6:55 AM,77.5,66.2,68,29.98,10.0,Calm,Calm,-,N/A,,Clear,0,2013-07-13 11:55:00
7:15 AM,78.3,66.2,66,29.98,10.0,Calm,Calm,-,N/A,,Clear,0,2013-07-13 12:15:00
7:35 AM,79.7,66.7,64,29.99,10.0,Calm,Calm,-,N/A,,Clear,0,2013-07-13 12:35:00
7:55 AM,81.0,68.5,66,29.99,10.0,Calm,Calm,-,N/A,,Clear,0,2013-07-13 12:55:00
8:15 AM,83.3,68.4,61,30.00,10.0,East,4.6,-,N/A,,Clear,100,2013-07-13 13:15:00
8:35 AM,83.8,68.4,59,30.00,10.0,East,4.6,-,N/A,,Clear,90,2013-07-13 13:35:00
8:55 AM,85.3,68.2,56,30.01,10.0,ESE,6.9,-,N/A,,Clear,120,2013-07-13 13:55:00
9:15 AM,86.5,67.3,52,30.01,10.0,East,4.6,-,N/A,,Clear,90,2013-07-13 14:15:00
9:35 AM,87.8,66.0,48,30.01,10.0,East,3.5,-,N/A,,Clear,100,2013-07-13 14:35:00
9:55 AM,89.6,65.1,44,30.01,10.0,East,4.6,-,N/A,,Clear,100,2013-07-13 14:55:00
10:15 AM,90.9,64.0,41,30.00,10.0,East,3.5,-,N/A,,Clear,100,2013-07-13 15:15:00
10:35 AM,91.6,63.0,38,30.00,10.0,Calm,Calm,-,N/A,,Clear,0,2013-07-13 15:35:00
10:55 AM,92.7,61.3,35,29.99,10.0,Calm,Calm,-,N/A,,Clear,0,2013-07-13 15:55:00
11:15 AM,94.8,61.0,32,29.99,10.0,NE,3.5,-,N/A,,Clear,50,2013-07-13 16:15:00
11:35 AM,95.7,61.3,32,29.99,10.0,North,4.6,-,N/A,,Clear,10,2013-07-13 16:35:00
11:55 AM,96.1,60.6,31,29.99,10.0,ENE,3.5,-,N/A,,Clear,70,2013-07-13 16:55:00
12:15 PM,97.9,60.4,29,29.98,10.0,Calm,Calm,-,N/A,,Clear,0,2013-07-13 17:15:00
12:35 PM,99.0,60.8,28,29.97,10.0,NNW,3.5,-,N/A,,Clear,340,2013-07-13 17:35:00
12:55 PM,99.5,60.8,28,29.97,10.0,Calm,Calm,-,N/A,,Clear,0,2013-07-13 17:55:00
1:15 PM,99.9,60.1,27,29.96,10.0,NNE,5.8,-,N/A,,Clear,30,2013-07-13 18:15:00
1:35 PM,101.3,59.7,25,29.95,10.0,North,6.9,-,N/A,,Clear,350,2013-07-13 18:35:00
1:55 PM,100.6,59.2,25,29.95,10.0,North,5.8,-,N/A,,Clear,10,2013-07-13 18:55:00
2:15 PM,101.3,59.0,25,29.95,10.0,East,5.8,-,N/A,,Clear,90,2013-07-13 19:15:00
2:35 PM,101.7,59.0,24,29.93,10.0,NNW,8.1,-,N/A,,Clear,340,2013-07-13 19:35:00
2:55 PM,100.8,59.0,25,29.92,10.0,NNE,4.6,-,N/A,,Clear,20,2013-07-13 19:55:00
3:15 PM,102.0,58.6,24,29.92,10.0,East,3.5,-,N/A,,Clear,80,2013-07-13 20:15:00
3:35 PM,102.4,59.4,24,29.91,10.0,NNE,4.6,-,N/A,,Mostly Cloudy,20,2013-07-13 20:35:00
3:55 PM,100.8,58.6,25,29.90,10.0,ESE,6.9,-,N/A,,Scattered Clouds,110,2013-07-13 20:55:00
4:15 PM,102.4,58.8,24,29.90,10.0,East,8.1,-,N/A,,Clear,80,2013-07-13 21:15:00
4:35 PM,103.1,58.8,23,29.89,10.0,East,9.2,-,N/A,,Scattered Clouds,90,2013-07-13 21:35:00
4:55 PM,100.8,59.9,26,29.89,10.0,East,9.2,-,N/A,,Scattered Clouds,90,2013-07-13 21:55:00
5:15 PM,102.9,59.5,24,29.89,10.0,East,9.2,-,N/A,,Clear,80,2013-07-13 22:15:00
5:35 PM,102.6,59.2,24,29.89,10.0,ENE,4.6,-,N/A,,Clear,60,2013-07-13 22:35:00
5:55 PM,102.6,60.3,25,29.88,10.0,East,12.7,-,N/A,,Scattered Clouds,80,2013-07-13 22:55:00
6:15 PM,101.5,60.1,25,29.87,10.0,ENE,6.9,-,N/A,,Scattered Clouds,70,2013-07-13 23:15:00
6:35 PM,101.5,58.5,24,29.87,10.0,East,8.1,-,N/A,,Clear,100,2013-07-13 23:35:00
6:55 PM,100.8,59.0,25,29.87,10.0,ENE,10.4,17.3,N/A,,Clear,60,2013-07-13 23:55:00
7:15 PM,100.4,59.0,25,29.87,10.0,ENE,11.5,-,N/A,,Clear,70,2013-07-14 00:15:00
7:35 PM,99.7,59.9,27,29.87,10.0,East,12.7,-,N/A,,Clear,100,2013-07-14 00:35:00
7:55 PM,99.0,60.3,28,29.87,10.0,East,10.4,-,N/A,,Clear,90,2013-07-14 00:55:00
8:15 PM,97.9,60.1,28,29.88,10.0,East,11.5,-,N/A,,Clear,100,2013-07-14 01:15:00
8:35 PM,96.8,60.3,30,29.88,10.0,East,6.9,-,N/A,,Clear,90,2013-07-14 01:35:00
8:55 PM,95.9,60.6,31,29.89,10.0,East,8.1,-,N/A,,Clear,90,2013-07-14 01:55:00
9:15 PM,94.6,60.3,32,29.90,10.0,East,16.1,20.7,N/A,,Clear,90,2013-07-14 02:15:00
9:35 PM,93.4,58.8,31,29.90,10.0,East,10.4,17.3,N/A,,Clear,90,2013-07-14 02:35:00
9:55 PM,92.8,57.9,31,29.91,10.0,East,9.2,-,N/A,,Clear,90,2013-07-14 02:55:00
10:15 PM,92.3,56.1,29,29.92,10.0,East,11.5,-,N/A,,Clear,100,2013-07-14 03:15:00
10:35 PM,91.0,57.0,32,29.92,10.0,ESE,10.4,-,N/A,,Clear,110,2013-07-14 03:35:00
10:55 PM,90.3,57.2,33,29.93,10.0,ESE,9.2,-,N/A,,Clear,110,2013-07-14 03:55:00
11:15 PM,89.6,57.6,34,29.93,10.0,East,11.5,-,N/A,,Clear,100,2013-07-14 04:15:00
11:35 PM,89.1,58.3,35,29.95,10.0,East,11.5,-,N/A,,Clear,100,2013-07-14 04:35:00
11:55 PM,88.2,59.2,37,29.95,10.0,ESE,9.2,-,N/A,,Clear,110,2013-07-14 04:55:00